Time;durP1;ratioP1;P1;durP2;ratioP2;P2;SDS_P1;SDS_P2;PMS_P1;PMS_P2;Temp;Humidity;BMP_temperature;BMP_pressure;BME280_temperature;BME280_humidity;BME280_pressure;Samples;Min_cycle;Max_cycle;Signal;HPM_P1;HPM_P2
2023/07/29 00:02:07;;;;;;;5.32;2.25;;;;;;;16.78;100.00;98507.63;5070549;28;20031;-73
2023/07/29 00:04:32;;;;;;;3.88;2.08;;;;;;;16.77;100.00;98497.81;5068561;28;20060;-72
2023/07/29 00:06:57;;;;;;;3.10;2.15;;;;;;;16.88;100.00;98514.34;5032347;28;20029;-73
2023/07/29 00:09:23;;;;;;;2.97;2.00;;;;;;;16.90;100.00;98520.34;5057767;28;20059;-72
2023/07/29 00:11:48;;;;;;;3.78;1.98;;;;;;;16.96;100.00;98500.25;5063080;28;20017;-70
2023/07/29 00:14:13;;;;;;;6.07;2.55;;;;;;;16.97;100.00;98499.97;5050870;28;20107;-72
2023/07/29 00:16:39;;;;;;;3.05;2.03;;;;;;;16.97;100.00;98499.97;5063170;28;20037;-72
2023/07/29 00:19:04;;;;;;;2.85;2.10;;;;;;;16.97;100.00;98497.25;5051555;28;20047;-73
2023/07/29 00:21:29;;;;;;;9.90;2.10;;;;;;;16.89;100.00;98472.25;5041205;28;20052;-73
2023/07/29 00:23:57;;;;;;;2.92;2.05;;;;;;;17.04;100.00;98492.44;5034712;28;20044;-71
2023/07/29 00:26:23;;;;;;;3.30;2.20;;;;;;;16.97;100.00;98482.75;5038985;28;20075;-73
2023/07/29 00:28:48;;;;;;;3.97;1.92;;;;;;;17.04;100.00;98480.66;5027938;28;20390;-74
2023/07/29 00:31:13;;;;;;;2.92;1.90;;;;;;;17.11;100.00;98481.31;5022244;28;20076;-73
2023/07/29 00:33:38;;;;;;;4.53;2.00;;;;;;;17.12;100.00;98472.03;5045984;28;20109;-73
2023/07/29 00:36:04;;;;;;;2.97;1.85;;;;;;;17.16;100.00;98473.19;5041467;28;20017;-73
2023/07/29 00:38:29;;;;;;;3.03;1.63;;;;;;;17.18;100.00;98465.53;5026596;28;20031;-73
2023/07/29 00:40:57;;;;;;;3.83;1.98;;;;;;;17.13;100.00;98457.28;5046722;28;20052;-74
2023/07/29 00:43:22;;;;;;;8.85;2.20;;;;;;;17.18;100.00;98457.34;5044662;28;20036;-73
2023/07/29 00:45:47;;;;;;;3.17;1.65;;;;;;;17.24;100.00;98467.28;5025599;28;20429;-74
2023/07/29 00:48:13;;;;;;;2.95;1.50;;;;;;;17.25;100.00;98460.72;5034925;28;20063;-74
2023/07/29 00:50:38;;;;;;;2.38;1.50;;;;;;;17.29;100.00;98450.94;5038523;28;20021;-74
2023/07/29 00:53:04;;;;;;;2.28;1.42;;;;;;;17.28;100.00;98449.25;5033192;28;20489;-73
2023/07/29 00:55:29;;;;;;;5.00;1.75;;;;;;;17.31;100.00;98447.91;5047327;28;20021;-74
2023/07/29 00:57:55;;;;;;;2.25;1.65;;;;;;;17.31;100.00;98439.72;5040748;28;20060;-74
2023/07/29 01:00:21;;;;;;;4.47;1.70;;;;;;;17.41;100.00;98436.28;5028107;28;20035;-73
2023/07/29 01:02:47;;;;;;;3.15;1.45;;;;;;;17.37;100.00;98430.50;5040261;28;20020;-74
2023/07/29 01:05:15;;;;;;;4.13;1.60;;;;;;;17.36;100.00;98431.56;5035190;28;20529;-74
2023/07/29 01:07:50;;;;;;;2.40;1.70;;;;;;;17.33;100.00;98425.81;5029409;28;20062;-75
2023/07/29 01:10:23;;;;;;;3.33;1.83;;;;;;;17.24;100.00;98426.25;5035219;28;20362;-74
2023/07/29 01:12:57;;;;;;;2.47;1.50;;;;;;;17.23;100.00;98429.22;5027870;28;20090;-74
2023/07/29 01:15:33;;;;;;;3.42;1.67;;;;;;;17.17;100.00;98422.88;5020035;28;20071;-74
2023/07/29 01:18:15;;;;;;;3.13;1.85;;;;;;;17.25;100.00;98427.91;5043609;28;20029;-74
2023/07/29 01:20:42;;;;;;;4.93;1.58;;;;;;;17.24;100.00;98419.97;5035123;28;20071;-74
2023/07/29 01:23:07;;;;;;;2.33;1.58;;;;;;;17.25;100.00;98414.22;5036926;28;20112;-71
2023/07/29 01:25:33;;;;;;;2.80;1.73;;;;;;;17.24;100.00;98407.13;5018581;28;20078;-73
2023/07/29 01:27:58;;;;;;;1.70;1.30;;;;;;;17.21;100.00;98407.63;5038810;28;20029;-75
2023/07/29 01:30:31;;;;;;;2.47;1.80;;;;;;;17.15;100.00;98402.34;5036061;28;20043;-74
2023/07/29 01:33:22;;;;;;;9.27;1.70;;;;;;;17.17;100.00;98411.94;5043034;28;20021;-73
2023/07/29 01:36:03;;;;;;;2.28;1.15;;;;;;;17.20;100.00;98407.88;5045254;28;20082;-74
2023/07/29 01:38:34;;;;;;;2.08;1.38;;;;;;;17.08;100.00;98399.81;5040384;28;20029;-73
2023/07/29 01:41:01;;;;;;;3.65;1.50;;;;;;;17.17;100.00;98409.22;5029721;28;20021;-74
2023/07/29 01:43:28;;;;;;;1.73;1.30;;;;;;;17.13;100.00;98416.25;5024493;28;20036;-73
2023/07/29 01:45:54;;;;;;;2.92;1.58;;;;;;;17.07;100.00;98412.66;5036561;28;20108;-74
2023/07/29 01:48:19;;;;;;;2.78;1.40;;;;;;;17.04;100.00;98409.59;5038498;28;20061;-73
2023/07/29 01:50:45;;;;;;;1.83;1.35;;;;;;;17.17;100.00;98411.94;5042466;28;20656;-74
2023/07/29 01:53:10;;;;;;;3.00;1.55;;;;;;;17.12;100.00;98394.66;5039142;28;20032;-74
2023/07/29 01:55:35;;;;;;;3.80;1.75;;;;;;;17.22;100.00;98398.34;5024713;28;20380;-73
2023/07/29 01:58:00;;;;;;;3.22;1.40;;;;;;;17.21;100.00;98398.59;5043674;28;20033;-74
2023/07/29 02:00:26;;;;;;;1.20;0.93;;;;;;;17.20;100.00;98395.03;5036165;28;20033;-73
2023/07/29 02:02:51;;;;;;;2.03;1.00;;;;;;;17.13;100.00;98388.94;5023202;28;20056;-74
2023/07/29 02:05:16;;;;;;;5.38;1.45;;;;;;;17.07;100.00;98376.28;5041033;28;20059;-74
2023/07/29 02:07:42;;;;;;;3.17;1.27;;;;;;;17.08;100.00;98391.59;5038650;28;20049;-74
2023/07/29 02:10:08;;;;;;;2.05;1.10;;;;;;;17.16;100.00;98390.31;5034869;28;20045;-75
2023/07/29 02:12:34;;;;;;;1.98;1.10;;;;;;;17.25;100.00;98386.88;5041499;28;20060;-75
2023/07/29 02:14:59;;;;;;;1.88;1.13;;;;;;;17.21;100.00;98374.84;5035337;28;20029;-73
2023/07/29 02:17:26;;;;;;;1.15;1.00;;;;;;;17.21;100.00;98376.72;5032957;28;20082;-74
2023/07/29 02:19:51;;;;;;;2.53;1.10;;;;;;;17.27;100.00;98378.44;5048206;28;20025;-74
2023/07/29 02:22:17;;;;;;;2.47;1.23;;;;;;;17.28;100.00;98375.44;5021870;28;20025;-74
2023/07/29 02:24:43;;;;;;;1.77;1.00;;;;;;;17.27;100.00;98389.38;5018764;28;20120;-74
2023/07/29 02:27:08;;;;;;;1.33;0.90;;;;;;;17.26;100.00;98382.25;5040481;28;20115;-75
2023/07/29 02:29:33;;;;;;;4.03;1.30;;;;;;;17.22;100.00;98383.84;5018570;28;20670;-74
2023/07/29 02:32:00;;;;;;;2.40;1.80;;;;;;;17.12;100.00;98379.09;5019023;28;21038;-74
2023/07/29 02:34:25;;;;;;;2.65;1.27;;;;;;;17.12;100.00;98370.88;5016315;28;20391;-74
2023/07/29 02:36:50;;;;;;;2.47;0.90;;;;;;;17.15;100.00;98367.63;5042488;28;20033;-74
2023/07/29 02:39:15;;;;;;;1.45;0.88;;;;;;;17.13;100.00;98377.19;5038259;28;20103;-74
2023/07/29 02:41:41;;;;;;;1.80;1.10;;;;;;;17.05;100.00;98371.06;5042724;28;20025;-74
2023/07/29 02:44:06;;;;;;;1.88;0.98;;;;;;;17.06;100.00;98369.19;5035610;28;20108;-74
2023/07/29 02:46:32;;;;;;;3.15;1.10;;;;;;;17.09;100.00;98376.88;5046384;28;20356;-74
2023/07/29 02:48:57;;;;;;;4.82;1.05;;;;;;;17.03;100.00;98367.78;5045514;28;20050;-74
2023/07/29 02:51:22;;;;;;;8.23;1.15;;;;;;;17.05;100.00;98376.53;5017770;28;20098;-74
2023/07/29 02:53:48;;;;;;;1.92;1.10;;;;;;;16.99;100.00;98368.56;5037488;28;20027;-75
2023/07/29 02:56:13;;;;;;;1.77;0.93;;;;;;;17.05;100.00;98373.00;5045090;28;20063;-73
2023/07/29 02:58:39;;;;;;;4.05;1.17;;;;;;;17.03;100.00;98375.19;5045413;28;20112;-75
2023/07/29 03:01:06;;;;;;;2.45;1.00;;;;;;;17.04;100.00;98376.81;5044739;28;20027;-75
2023/07/29 03:03:31;;;;;;;1.83;1.00;;;;;;;16.99;100.00;98360.34;5044795;28;20968;-72
2023/07/29 03:06:08;;;;;;;2.20;1.00;;;;;;;17.04;100.00;98352.22;5039260;28;20103;-74
2023/07/29 03:08:34;;;;;;;2.03;1.17;;;;;;;17.04;100.00;98346.75;5045316;28;20049;-74
2023/07/29 03:11:12;;;;;;;1.95;0.93;;;;;;;17.07;100.00;98349.78;5025288;28;20057;-74
2023/07/29 03:13:37;;;;;;;1.85;1.08;;;;;;;17.05;100.00;98332.81;5039401;28;20033;-73
2023/07/29 03:16:08;;;;;;;4.18;0.98;;;;;;;17.05;100.00;98334.72;5035678;28;20037;-75
2023/07/29 03:18:34;;;;;;;1.13;0.75;;;;;;;16.98;100.00;98324.00;5035394;28;20029;-74
2023/07/29 03:21:00;;;;;;;1.95;1.30;;;;;;;16.93;100.00;98331.34;5024635;28;20028;-73
2023/07/29 03:23:25;;;;;;;1.88;1.02;;;;;;;16.76;100.00;98321.25;5037665;28;20051;-74
2023/07/29 03:25:53;;;;;;;1.77;0.90;;;;;;;16.79;100.00;98318.06;5037971;28;20033;-74
2023/07/29 03:28:18;;;;;;;3.30;1.05;;;;;;;16.69;100.00;98331.56;5045091;28;20120;-73
2023/07/29 03:30:43;;;;;;;2.85;1.00;;;;;;;16.55;100.00;98322.09;5015485;28;20156;-74
2023/07/29 03:33:08;;;;;;;2.15;1.00;;;;;;;16.51;100.00;98329.16;5042126;28;20092;-72
2023/07/29 03:35:34;;;;;;;2.60;0.93;;;;;;;16.49;100.00;98345.78;5043894;28;20411;-75
2023/07/29 03:37:59;;;;;;;1.25;0.90;;;;;;;16.53;100.00;98359.75;5044477;28;20028;-74
2023/07/29 03:40:24;;;;;;;2.50;0.80;;;;;;;16.61;100.00;98371.06;5041133;28;20428;-74
2023/07/29 03:42:49;;;;;;;2.17;0.88;;;;;;;16.75;100.00;98363.31;5046410;28;20027;-73
2023/07/29 03:45:15;;;;;;;3.67;0.77;;;;;;;16.86;100.00;98354.19;5041774;28;20383;-73
2023/07/29 03:47:40;;;;;;;2.95;0.93;;;;;;;16.95;100.00;98351.00;5050521;28;20475;-74
2023/07/29 03:50:06;;;;;;;1.38;0.90;;;;;;;16.95;100.00;98340.06;5021335;28;20029;-75
2023/07/29 03:52:31;;;;;;;2.38;1.00;;;;;;;17.04;100.00;98327.63;5045375;28;20023;-74
2023/07/29 03:54:56;;;;;;;1.98;0.70;;;;;;;17.01;100.00;98317.22;5046006;28;20051;-74
2023/07/29 03:57:22;;;;;;;1.42;0.88;;;;;;;17.01;100.00;98320.75;5032914;28;20021;-74
2023/07/29 03:59:47;;;;;;;1.30;0.80;;;;;;;17.06;100.00;98317.25;5040109;28;20561;-74
2023/07/29 04:02:12;;;;;;;5.10;0.98;;;;;;;17.01;100.00;98318.03;5039023;28;20021;-74
2023/07/29 04:04:38;;;;;;;2.00;1.08;;;;;;;17.10;100.00;98321.13;5043850;28;20401;-74
2023/07/29 04:07:03;;;;;;;1.52;0.85;;;;;;;17.06;100.00;98309.06;5020980;28;20032;-74
2023/07/29 04:09:29;;;;;;;1.98;0.70;;;;;;;17.10;100.00;98310.19;5040250;28;20033;-75
2023/07/29 04:11:54;;;;;;;1.00;0.80;;;;;;;17.16;100.00;98319.25;5023836;28;20075;-74
2023/07/29 04:14:19;;;;;;;1.20;0.90;;;;;;;17.17;100.00;98310.81;5044383;28;20028;-74
2023/07/29 04:16:45;;;;;;;2.22;0.82;;;;;;;17.11;100.00;98309.13;5047540;28;20056;-74
2023/07/29 04:19:10;;;;;;;1.45;0.80;;;;;;;17.00;100.00;98310.91;5043317;28;20406;-74
2023/07/29 04:21:35;;;;;;;1.50;0.85;;;;;;;16.91;100.00;98323.38;5023708;28;20029;-74
2023/07/29 04:24:01;;;;;;;1.85;1.10;;;;;;;16.72;100.00;98319.31;5038197;28;20021;-71
2023/07/29 04:26:26;;;;;;;1.90;1.05;;;;;;;16.75;100.00;98341.47;5028700;28;20040;-74
2023/07/29 04:28:51;;;;;;;1.70;1.20;;;;;;;16.74;100.00;98334.38;5048058;28;20024;-72
2023/07/29 04:31:16;;;;;;;1.77;0.98;;;;;;;16.64;100.00;98324.13;5044882;28;20024;-73
2023/07/29 04:33:42;;;;;;;3.17;1.30;;;;;;;16.64;100.00;98340.53;5032513;28;20463;-77
2023/07/29 04:36:07;;;;;;;2.17;1.50;;;;;;;16.68;100.00;98345.47;5022280;28;20110;-76
2023/07/29 04:38:34;;;;;;;1.80;1.17;;;;;;;16.71;100.00;98351.25;5043336;28;20021;-76
2023/07/29 04:41:01;;;;;;;2.05;1.20;;;;;;;16.77;100.00;98363.09;5026300;28;20024;-76
2023/07/29 04:43:31;;;;;;;4.68;1.58;;;;;;;16.78;100.00;98368.31;5035826;28;20091;-76
2023/07/29 04:45:56;;;;;;;7.60;1.40;;;;;;;16.68;100.00;98362.69;5021054;28;20032;-78
2023/07/29 04:48:22;;;;;;;4.75;1.70;;;;;;;16.67;100.00;98366.50;5049587;28;20036;-76
2023/07/29 04:50:47;;;;;;;3.38;1.40;;;;;;;16.68;100.00;98387.25;5027839;28;20030;-76
2023/07/29 05:00:09;;;;;;;5.93;2.05;;;;;;;16.53;100.00;98425.28;5056120;28;20060;-82
2023/07/29 05:02:35;;;;;;;15.02;2.40;;;;;;;16.48;100.00;98417.88;5033533;28;20120;-72
2023/07/29 05:05:00;;;;;;;5.90;2.17;;;;;;;16.40;100.00;98401.88;5018490;28;20105;-76
2023/07/29 05:07:25;;;;;;;5.00;2.83;;;;;;;16.34;100.00;98401.00;5022527;28;20402;-77
2023/07/29 05:09:51;;;;;;;4.25;2.20;;;;;;;16.46;100.00;98394.63;5043326;28;20025;-75
2023/07/29 05:12:16;;;;;;;5.45;2.10;;;;;;;16.43;100.00;98383.13;5017281;28;20033;-77
2023/07/29 05:14:41;;;;;;;3.70;2.17;;;;;;;16.50;100.00;98390.28;5040208;28;20017;-76
2023/07/29 05:17:07;;;;;;;4.93;2.70;;;;;;;16.47;100.00;98383.44;5050807;28;20104;-76
2023/07/29 05:19:32;;;;;;;5.82;2.60;;;;;;;16.69;100.00;98399.88;5043567;28;20830;-78
2023/07/29 05:21:57;;;;;;;4.10;2.55;;;;;;;16.75;100.00;98385.19;5026211;28;20022;-76
2023/07/29 05:24:23;;;;;;;5.10;2.53;;;;;;;16.92;100.00;98376.13;5048078;28;20090;-78
2023/07/29 05:26:49;;;;;;;3.60;2.38;;;;;;;17.08;100.00;98386.13;5038297;28;20032;-77
2023/07/29 05:29:14;;;;;;;7.22;2.75;;;;;;;17.42;100.00;98377.75;5017636;28;20055;-78
2023/07/29 05:31:40;;;;;;;5.57;2.50;;;;;;;17.49;100.00;98378.38;5023537;28;20458;-78
2023/07/29 05:34:05;;;;;;;3.85;2.40;;;;;;;17.43;100.00;98357.53;5032336;28;20032;-78
2023/07/29 05:36:30;;;;;;;3.15;2.00;;;;;;;17.68;100.00;98373.34;5034545;28;20513;-78
2023/07/29 05:38:56;;;;;;;6.32;2.15;;;;;;;17.70;100.00;98373.91;5019964;28;20506;-73
2023/07/29 05:41:21;;;;;;;4.63;2.03;;;;;;;17.69;100.00;98373.09;5044497;28;20025;-73
2023/07/29 05:43:47;;;;;;;4.32;2.70;;;;;;;17.80;100.00;98393.19;5047204;28;20065;-73
2023/07/29 05:46:12;;;;;;;5.57;1.85;;;;;;;17.83;100.00;98367.22;5043425;28;20041;-78
2023/07/29 05:48:37;;;;;;;2.60;1.65;;;;;;;17.88;100.00;98378.22;5032499;28;20052;-78
2023/07/29 05:51:05;;;;;;;4.80;1.77;;;;;;;17.98;100.00;98370.09;5031266;28;20090;-78
2023/07/29 05:53:30;;;;;;;3.28;1.65;;;;;;;18.01;100.00;98379.69;5057765;22;20079;-55
2023/07/29 05:55:56;;;;;;;2.63;1.58;;;;;;;17.83;100.00;98373.50;5070342;28;20487;-56
2023/07/29 05:58:21;;;;;;;4.20;1.73;;;;;;;17.87;100.00;98371.91;5047964;28;20029;-56
2023/07/29 06:00:47;;;;;;;3.17;1.60;;;;;;;17.96;100.00;98380.47;5049948;28;20472;-53
2023/07/29 06:03:12;;;;;;;3.72;1.70;;;;;;;17.92;100.00;98355.53;5046121;28;20029;-53
2023/07/29 06:05:38;;;;;;;2.35;1.52;;;;;;;18.08;100.00;98370.16;5055902;28;20652;-53
2023/07/29 06:08:04;;;;;;;6.63;1.60;;;;;;;18.09;100.00;98366.31;5047312;28;20048;-53
2023/07/29 06:10:29;;;;;;;2.38;1.48;;;;;;;18.28;100.00;98352.22;5048959;28;21610;-53
2023/07/29 06:12:55;;;;;;;2.92;1.58;;;;;;;18.55;100.00;98339.22;5049468;28;20039;-53
2023/07/29 06:15:22;;;;;;;2.10;1.40;;;;;;;18.76;100.00;98328.38;5052377;28;20028;-53
2023/07/29 06:17:48;;;;;;;5.20;1.60;;;;;;;18.98;100.00;98312.53;5057750;28;20107;-52
2023/07/29 06:20:13;;;;;;;4.90;2.00;;;;;;;19.41;100.00;98313.19;5068461;28;20447;-53
2023/07/29 06:22:39;;;;;;;3.80;1.42;;;;;;;19.43;100.00;98301.94;5055877;28;20028;-53
2023/07/29 06:25:04;;;;;;;2.15;1.40;;;;;;;19.52;100.00;98299.44;5067024;28;20020;-54
2023/07/29 06:27:30;;;;;;;2.03;1.10;;;;;;;19.56;100.00;98301.38;5047921;28;20029;-53
2023/07/29 06:29:55;;;;;;;3.97;1.08;;;;;;;19.40;100.00;98297.81;5059794;28;20025;-52
2023/07/29 06:32:20;;;;;;;4.45;1.20;;;;;;;19.53;100.00;98296.44;5047665;28;20468;-52
2023/07/29 06:34:46;;;;;;;2.65;1.23;;;;;;;19.42;100.00;98309.34;5056071;28;20554;-53
2023/07/29 06:37:11;;;;;;;2.85;1.10;;;;;;;19.64;100.00;98309.06;5051117;28;20037;-53
2023/07/29 06:39:37;;;;;;;2.83;1.25;;;;;;;19.54;100.00;98313.72;5062205;28;20448;-53
2023/07/29 06:42:02;;;;;;;1.70;1.45;;;;;;;19.55;100.00;98316.22;5047901;28;20032;-53
2023/07/29 06:44:28;;;;;;;5.93;1.70;;;;;;;19.35;100.00;98307.97;5048327;28;20032;-53
2023/07/29 06:46:53;;;;;;;5.32;1.52;;;;;;;19.22;100.00;98321.09;5059505;28;20034;-53
2023/07/29 06:49:19;;;;;;;3.15;1.25;;;;;;;19.29;100.00;98336.47;5044969;28;20048;-53
2023/07/29 06:51:44;;;;;;;3.25;1.45;;;;;;;19.18;100.00;98347.44;5049603;28;20029;-53
2023/07/29 06:54:09;;;;;;;6.85;1.50;;;;;;;19.21;100.00;98343.31;5046038;28;20036;-53
2023/07/29 06:56:35;;;;;;;4.78;1.42;;;;;;;19.19;100.00;98351.00;5051488;28;20081;-53
2023/07/29 06:59:00;;;;;;;2.33;1.50;;;;;;;19.20;100.00;98353.47;5050628;28;20115;-52
2023/07/29 07:01:26;;;;;;;2.47;1.60;;;;;;;19.09;100.00;98356.44;5067328;28;20065;-52
2023/07/29 07:03:54;;;;;;;2.88;1.70;;;;;;;19.13;100.00;98347.41;5044703;28;20028;-52
2023/07/29 07:06:21;;;;;;;4.47;1.50;;;;;;;19.11;100.00;98354.25;5054185;28;20029;-53
2023/07/29 07:08:48;;;;;;;2.58;1.55;;;;;;;19.04;100.00;98354.50;5055002;28;20072;-53
2023/07/29 07:11:13;;;;;;;4.45;1.63;;;;;;;19.13;100.00;98357.56;5044845;28;20048;-54
2023/07/29 07:13:39;;;;;;;3.13;2.20;;;;;;;18.99;100.00;98370.94;5037987;28;20798;-54
2023/07/29 07:16:04;;;;;;;2.33;1.70;;;;;;;18.85;100.00;98378.03;5053158;28;20020;-53
2023/07/29 07:18:31;;;;;;;3.33;2.00;;;;;;;18.82;100.00;98371.16;5050491;28;20079;-53
2023/07/29 07:20:56;;;;;;;6.43;2.40;;;;;;;18.91;100.00;98382.44;5044957;28;20020;-52
2023/07/29 07:23:21;;;;;;;4.85;2.03;;;;;;;18.90;100.00;98387.09;5050536;28;20039;-52
2023/07/29 07:25:47;;;;;;;6.68;3.13;;;;;;;19.03;100.00;98385.78;5048138;28;20063;-52
2023/07/29 07:28:12;;;;;;;5.60;2.25;;;;;;;18.83;100.00;98394.72;5046030;28;20052;-52
2023/07/29 07:30:41;;;;;;;3.58;2.05;;;;;;;18.74;100.00;98394.38;5062307;28;20046;-52
2023/07/29 07:33:07;;;;;;;10.60;3.15;;;;;;;18.59;100.00;98403.34;5050433;28;20518;-53
2023/07/29 07:35:33;;;;;;;5.55;3.30;;;;;;;18.56;100.00;98403.06;5043293;28;20029;-53
2023/07/29 07:38:01;;;;;;;4.75;2.85;;;;;;;18.61;100.00;98408.56;5054758;28;20033;-53
2023/07/29 07:40:28;;;;;;;7.07;4.00;;;;;;;18.76;100.00;98407.88;5053233;28;20028;-53
2023/07/29 07:42:53;;;;;;;10.52;3.35;;;;;;;18.90;100.00;98410.94;5046398;28;20037;-53
2023/07/29 07:45:19;;;;;;;3.88;2.70;;;;;;;18.91;100.00;98410.66;5063605;28;20085;-53
2023/07/29 07:47:44;;;;;;;7.88;2.72;;;;;;;18.97;100.00;98403.31;5066773;28;20048;-52
2023/07/29 07:50:10;;;;;;;3.80;2.20;;;;;;;18.95;100.00;98405.47;5053841;28;20025;-53
2023/07/29 07:52:36;;;;;;;3.17;2.38;;;;;;;18.98;100.00;98400.28;5044749;28;20045;-52
2023/07/29 07:55:01;;;;;;;4.15;2.30;;;;;;;19.07;100.00;98403.31;5049803;28;20030;-52
2023/07/29 07:57:27;;;;;;;4.85;2.83;;;;;;;19.25;100.00;98399.28;5050856;28;20403;-53
2023/07/29 07:59:52;;;;;;;6.35;2.13;;;;;;;19.48;100.00;98393.28;5046971;28;20051;-53
2023/07/29 08:02:18;;;;;;;5.30;2.10;;;;;;;19.78;100.00;98380.75;5051139;28;20036;-52
2023/07/29 08:04:43;;;;;;;4.00;2.38;;;;;;;20.53;100.00;98366.38;5042860;28;20029;-52
2023/07/29 08:07:09;;;;;;;4.00;1.85;;;;;;;21.08;100.00;98337.03;5069740;28;20044;-53
2023/07/29 08:09:34;;;;;;;3.97;2.17;;;;;;;21.49;100.00;98317.56;5049477;28;20032;-53
2023/07/29 08:12:00;;;;;;;5.68;1.60;;;;;;;21.83;100.00;98308.47;5062451;28;20090;-56
2023/07/29 08:14:26;;;;;;;3.67;1.50;;;;;;;21.99;100.00;98287.13;5045854;28;20035;-54
2023/07/29 08:16:51;;;;;;;3.33;1.33;;;;;;;22.62;100.00;98284.22;5045247;28;20067;-56
2023/07/29 08:19:17;;;;;;;2.75;1.20;;;;;;;23.25;100.00;98266.56;5043742;28;20052;-56
2023/07/29 08:21:42;;;;;;;3.35;1.45;;;;;;;23.57;100.00;98262.19;5065238;28;20025;-56
2023/07/29 08:24:08;;;;;;;4.90;1.25;;;;;;;24.23;100.00;98254.66;5049947;28;20060;-56
2023/07/29 08:26:33;;;;;;;1.52;0.85;;;;;;;25.68;100.00;98243.72;5037917;28;20032;-55
2023/07/29 08:28:58;;;;;;;2.35;1.50;;;;;;;26.95;100.00;98243.25;5046304;28;20048;-56
2023/07/29 08:31:24;;;;;;;1.30;0.90;;;;;;;27.05;100.00;98249.28;5047333;28;20024;-56
2023/07/29 08:33:49;;;;;;;2.10;1.00;;;;;;;25.69;100.00;98263.91;5047699;28;20373;-56
2023/07/29 08:36:15;;;;;;;1.98;1.23;;;;;;;24.12;100.00;98284.44;5048239;28;20024;-56
2023/07/29 08:38:40;;;;;;;3.55;1.33;;;;;;;22.94;100.00;98294.56;5037411;28;20036;-56
2023/07/29 08:41:30;;;;;;;4.88;1.33;;;;;;;22.14;100.00;98302.66;5052410;28;20112;-56
2023/07/29 08:44:09;;;;;;;3.45;1.60;;;;;;;21.85;100.00;98320.84;5065989;28;20492;-56
2023/07/29 08:46:35;;;;;;;2.05;1.42;;;;;;;21.92;100.00;98320.50;5042922;28;20047;-56
2023/07/29 08:49:02;;;;;;;4.38;1.33;;;;;;;22.04;100.00;98315.44;5066395;28;20032;-56
2023/07/29 08:51:29;;;;;;;3.88;1.40;;;;;;;22.40;100.00;98308.75;5044651;28;20032;-56
2023/07/29 08:53:55;;;;;;;2.63;1.50;;;;;;;22.68;100.00;98307.03;5050054;28;20392;-56
2023/07/29 08:56:21;;;;;;;7.72;2.58;;;;;;;23.49;100.00;98288.53;5048844;28;20029;-56
2023/07/29 08:58:47;;;;;;;11.38;6.47;;;;;;;24.33;100.00;98284.88;5051795;28;20028;-56
2023/07/29 09:01:13;;;;;;;17.95;10.80;;;;;;;25.29;100.00;98283.19;5044023;28;20496;-56
2023/07/29 09:03:39;;;;;;;8.43;5.22;;;;;;;26.13;100.00;98276.09;5060835;28;20952;-56
2023/07/29 09:06:05;;;;;;;4.75;1.60;;;;;;;26.52;100.00;98272.53;5048773;28;20032;-56
2023/07/29 09:08:31;;;;;;;5.68;1.40;;;;;;;27.75;100.00;98271.53;5053952;28;20047;-56
2023/07/29 09:10:57;;;;;;;1.38;1.10;;;;;;;30.72;100.00;98271.00;5054249;28;20099;-56
2023/07/29 09:13:23;;;;;;;3.58;1.10;;;;;;;33.01;100.00;98265.38;5060692;28;20116;-56
2023/07/29 09:15:48;;;;;;;2.20;0.90;;;;;;;34.20;99.78;98255.47;5048710;28;20035;-56
2023/07/29 09:18:19;;;;;;;2.35;0.80;;;;;;;32.77;95.51;98258.03;5052496;28;20044;-56
2023/07/29 09:20:49;;;;;;;1.10;0.60;;;;;;;33.76;92.82;98245.41;5059610;28;20021;-56
2023/07/29 09:23:15;;;;;;;6.18;0.80;;;;;;;34.26;90.30;98249.16;5048498;28;20070;-56
2023/07/29 09:25:40;;;;;;;1.92;0.70;;;;;;;33.85;84.52;98238.75;5048913;28;20082;-56
2023/07/29 09:28:10;;;;;;;1.08;0.43;;;;;;;32.01;100.00;98250.50;5051328;28;20046;-56
2023/07/29 09:30:39;;;;;;;1.65;0.70;;;;;;;29.31;100.00;98252.50;5045458;28;20064;-56
2023/07/29 09:33:04;;;;;;;;;;;;;;;28.89;100.00;98250.47;5053624;28;20028;-56
2023/07/29 09:35:33;;;;;;;0.90;0.70;;;;;;;28.74;100.00;98253.84;5056609;28;19913;-56
2023/07/29 09:37:59;;;;;;;1.75;0.68;;;;;;;27.30;100.00;98253.28;5046261;28;20032;-56
2023/07/29 09:40:25;;;;;;;2.00;0.70;;;;;;;27.80;100.00;98257.47;5048523;28;20043;-53
2023/07/29 09:42:51;;;;;;;1.52;0.43;;;;;;;26.73;100.00;98250.56;5048331;28;20517;-53
2023/07/29 09:45:26;;;;;;;0.93;0.52;;;;;;;26.23;100.00;98264.75;5054551;28;20029;-60
2023/07/29 09:47:57;;;;;;;2.28;0.63;;;;;;;25.83;100.00;98264.63;5044853;28;20037;-60
2023/07/29 09:50:26;;;;;;;1.08;0.50;;;;;;;25.66;100.00;98270.09;5042457;28;20052;-60
2023/07/29 09:52:54;;;;;;;0.85;0.65;;;;;;;24.79;100.00;98277.63;5050181;28;20048;-60
2023/07/29 09:55:21;;;;;;;2.60;0.70;;;;;;;23.98;100.00;98280.84;5052594;28;20039;-60
2023/07/29 09:57:47;;;;;;;5.55;1.13;;;;;;;22.74;100.00;98287.38;5054178;28;20098;-59
2023/07/29 10:00:13;;;;;;;1.30;0.98;;;;;;;21.31;100.00;98305.25;5058886;28;20468;-60
2023/07/29 10:02:40;;;;;;;3.05;1.00;;;;;;;20.40;100.00;98344.97;5057521;28;20041;-59
2023/07/29 10:05:07;;;;;;;2.25;1.08;;;;;;;19.74;100.00;98365.91;5052251;28;20031;-59
2023/07/29 10:07:34;;;;;;;1.60;1.00;;;;;;;19.36;100.00;98376.28;5051084;28;20071;-62
2023/07/29 10:10:02;;;;;;;2.58;1.15;;;;;;;19.34;100.00;98362.00;5038302;28;20060;-62
2023/07/29 10:12:30;;;;;;;1.85;0.85;;;;;;;19.41;100.00;98362.56;5050870;28;20028;-62
2023/07/29 10:15:00;;;;;;;2.22;0.82;;;;;;;19.65;100.00;98365.63;5051052;28;20032;-59
2023/07/29 10:17:26;;;;;;;1.67;0.93;;;;;;;19.83;100.00;98363.44;5048138;28;20414;-59
2023/07/29 10:19:52;;;;;;;2.70;0.90;;;;;;;20.26;100.00;98337.31;5063535;28;20025;-59
2023/07/29 10:22:20;;;;;;;1.42;0.80;;;;;;;21.13;100.00;98317.75;5047076;28;20138;-59
2023/07/29 10:24:48;;;;;;;1.17;0.60;;;;;;;23.03;100.00;98291.16;5050478;28;20048;-62
2023/07/29 10:27:17;;;;;;;0.93;0.65;;;;;;;26.30;100.00;98270.63;5050395;28;20037;-58
2023/07/29 10:29:45;;;;;;;1.08;0.70;;;;;;;28.54;100.00;98258.22;5060892;28;20486;-59
2023/07/29 10:32:11;;;;;;;1.38;0.47;;;;;;;27.94;100.00;98277.56;5063419;28;20036;-59
2023/07/29 10:34:38;;;;;;;0.73;0.52;;;;;;;26.52;100.00;98271.72;5050107;28;20037;-59
2023/07/29 10:37:04;;;;;;;1.27;0.60;;;;;;;26.37;100.00;98282.06;5059940;28;20475;-59
2023/07/29 10:39:39;;;;;;;0.65;0.47;;;;;;;25.99;100.00;98278.94;5063350;28;20063;-59
2023/07/29 10:42:06;;;;;;;0.65;0.40;;;;;;;25.88;100.00;98283.94;5046711;28;20028;-59
2023/07/29 10:44:43;;;;;;;1.02;0.50;;;;;;;24.94;100.00;98288.34;5045042;28;20036;-58
2023/07/29 10:47:19;;;;;;;0.82;0.50;;;;;;;24.47;100.00;98304.25;5052833;28;20040;-59
2023/07/29 10:49:55;;;;;;;1.58;0.60;;;;;;;23.87;100.00;98302.31;5067112;28;20396;-58
2023/07/29 10:52:31;;;;;;;1.23;0.60;;;;;;;23.97;100.00;98315.09;5049611;28;20037;-58
2023/07/29 10:54:58;;;;;;;0.63;0.40;;;;;;;25.77;100.00;98293.63;5043957;28;20029;-58
2023/07/29 10:57:36;;;;;;;2.03;0.70;;;;;;;29.03;100.00;98278.91;5044511;28;20032;-58
2023/07/29 11:00:04;;;;;;;0.63;0.40;;;;;;;29.05;100.00;98281.38;5060861;28;20128;-58
2023/07/29 11:02:36;;;;;;;0.68;0.40;;;;;;;32.07;100.00;98281.88;5045692;28;20396;-59
2023/07/29 11:05:16;;;;;;;1.60;0.40;;;;;;;32.34;100.00;98270.97;5060028;28;20546;-58
2023/07/29 11:07:49;;;;;;;1.25;0.40;;;;;;;32.13;100.00;98282.41;5056797;28;20033;-58
2023/07/29 11:10:15;;;;;;;0.40;0.30;;;;;;;29.89;100.00;98282.16;5056901;28;20025;-58
2023/07/29 11:12:48;;;;;;;1.50;0.50;;;;;;;30.86;100.00;98273.47;5054402;28;20047;-58
2023/07/29 11:15:15;;;;;;;0.40;0.40;;;;;;;29.27;100.00;98266.31;5041956;28;20481;-58
2023/07/29 11:17:43;;;;;;;0.60;0.30;;;;;;;29.39;100.00;98269.13;5051027;28;20064;-58
2023/07/29 11:20:09;;;;;;;1.55;0.50;;;;;;;30.07;100.00;98274.41;5050123;28;20512;-58
2023/07/29 11:22:36;;;;;;;1.27;0.55;;;;;;;29.01;100.00;98269.25;5051910;28;20051;-58
2023/07/29 11:25:02;;;;;;;0.60;0.47;;;;;;;30.41;100.00;98263.22;5055542;28;20503;-58
2023/07/29 11:27:28;;;;;;;1.63;0.60;;;;;;;32.73;95.53;98266.38;5047193;28;20036;-59
2023/07/29 11:29:58;;;;;;;0.40;0.30;;;;;;;31.46;91.41;98263.34;5040415;28;20061;-59